sensor_id;sensor_type;location;lat;lon;timestamp;P1;durP1;ratioP1;P2;durP2;ratioP2
4027;SDS011;2028;51.346;12.396;2023-05-23T00:02:21;5.80;;;4.87;;
4027;SDS011;2028;51.346;12.396;2023-05-23T00:04:47;6.10;;;5.50;;
4027;SDS011;2028;51.346;12.396;2023-05-23T00:07:14;5.10;;;4.70;;
4027;SDS011;2028;51.346;12.396;2023-05-23T00:09:41;6.20;;;5.60;;
4027;SDS011;2028;51.346;12.396;2023-05-23T00:12:07;7.20;;;6.23;;
4027;SDS011;2028;51.346;12.396;2023-05-23T00:14:33;9.97;;;5.83;;
4027;SDS011;2028;51.346;12.396;2023-05-23T00:16:59;6.27;;;5.67;;
4027;SDS011;2028;51.346;12.396;2023-05-23T00:19:26;6.47;;;5.87;;
4027;SDS011;2028;51.346;12.396;2023-05-23T00:21:52;7.90;;;5.80;;
4027;SDS011;2028;51.346;12.396;2023-05-23T00:24:22;8.90;;;5.97;;
4027;SDS011;2028;51.346;12.396;2023-05-23T00:26:49;10.63;;;5.60;;
4027;SDS011;2028;51.346;12.396;2023-05-23T00:29:15;9.80;;;5.20;;
4027;SDS011;2028;51.346;12.396;2023-05-23T00:31:42;7.63;;;6.30;;
4027;SDS011;2028;51.346;12.396;2023-05-23T00:34:12;6.67;;;5.83;;
4027;SDS011;2028;51.346;12.396;2023-05-23T00:36:39;8.50;;;5.73;;
4027;SDS011;2028;51.346;12.396;2023-05-23T00:39:07;6.20;;;5.70;;
4027;SDS011;2028;51.346;12.396;2023-05-23T00:41:41;7.93;;;5.90;;
4027;SDS011;2028;51.346;12.396;2023-05-23T00:44:07;7.30;;;5.73;;
4027;SDS011;2028;51.346;12.396;2023-05-23T00:46:34;9.13;;;6.17;;
4027;SDS011;2028;51.346;12.396;2023-05-23T00:49:00;8.00;;;5.90;;
4027;SDS011;2028;51.346;12.396;2023-05-23T00:51:27;6.10;;;5.50;;
4027;SDS011;2028;51.346;12.396;2023-05-23T00:53:54;6.07;;;5.50;;
4027;SDS011;2028;51.346;12.396;2023-05-23T00:56:20;7.27;;;5.70;;
4027;SDS011;2028;51.346;12.396;2023-05-23T00:58:47;6.47;;;5.97;;
4027;SDS011;2028;51.346;12.396;2023-05-23T01:01:14;8.80;;;5.83;;
4027;SDS011;2028;51.346;12.396;2023-05-23T01:03:40;7.53;;;5.60;;
4027;SDS011;2028;51.346;12.396;2023-05-23T01:06:10;6.60;;;5.90;;
4027;SDS011;2028;51.346;12.396;2023-05-23T01:08:36;6.97;;;6.23;;
4027;SDS011;2028;51.346;12.396;2023-05-23T01:11:04;8.13;;;6.13;;
4027;SDS011;2028;51.346;12.396;2023-05-23T01:13:41;7.37;;;5.87;;
4027;SDS011;2028;51.346;12.396;2023-05-23T01:16:12;7.50;;;6.20;;
4027;SDS011;2028;51.346;12.396;2023-05-23T01:21:18;9.10;;;6.60;;
4027;SDS011;2028;51.346;12.396;2023-05-23T01:23:54;6.63;;;6.03;;
4027;SDS011;2028;51.346;12.396;2023-05-23T01:29:32;7.20;;;6.60;;
4027;SDS011;2028;51.346;12.396;2023-05-23T01:32:00;9.47;;;6.30;;
4027;SDS011;2028;51.346;12.396;2023-05-23T01:34:27;6.90;;;6.20;;
4027;SDS011;2028;51.346;12.396;2023-05-23T01:36:54;6.70;;;6.00;;
4027;SDS011;2028;51.346;12.396;2023-05-23T01:39:21;6.87;;;6.27;;
4027;SDS011;2028;51.346;12.396;2023-05-23T01:41:48;12.60;;;6.63;;
4027;SDS011;2028;51.346;12.396;2023-05-23T01:44:15;8.07;;;6.60;;
4027;SDS011;2028;51.346;12.396;2023-05-23T01:46:41;7.40;;;6.30;;
4027;SDS011;2028;51.346;12.396;2023-05-23T01:49:09;6.90;;;6.30;;
4027;SDS011;2028;51.346;12.396;2023-05-23T01:51:37;7.60;;;6.90;;
4027;SDS011;2028;51.346;12.396;2023-05-23T01:54:03;7.10;;;6.40;;
4027;SDS011;2028;51.346;12.396;2023-05-23T01:56:30;7.73;;;7.03;;
4027;SDS011;2028;51.346;12.396;2023-05-23T01:58:56;9.97;;;7.50;;
4027;SDS011;2028;51.346;12.396;2023-05-23T02:01:23;9.77;;;7.37;;
4027;SDS011;2028;51.346;12.396;2023-05-23T02:03:49;10.17;;;8.20;;
4027;SDS011;2028;51.346;12.396;2023-05-23T02:06:16;8.33;;;7.53;;
4027;SDS011;2028;51.346;12.396;2023-05-23T02:08:42;8.50;;;7.70;;
4027;SDS011;2028;51.346;12.396;2023-05-23T02:11:09;8.40;;;7.70;;
4027;SDS011;2028;51.346;12.396;2023-05-23T02:13:35;8.80;;;8.00;;
4027;SDS011;2028;51.346;12.396;2023-05-23T02:16:02;10.03;;;9.03;;
4027;SDS011;2028;51.346;12.396;2023-05-23T02:18:28;9.87;;;8.77;;
4027;SDS011;2028;51.346;12.396;2023-05-23T02:20:55;10.10;;;9.10;;
4027;SDS011;2028;51.346;12.396;2023-05-23T02:23:21;10.73;;;9.63;;
4027;SDS011;2028;51.346;12.396;2023-05-23T02:25:47;14.23;;;9.70;;
4027;SDS011;2028;51.346;12.396;2023-05-23T02:28:14;12.77;;;9.63;;
4027;SDS011;2028;51.346;12.396;2023-05-23T02:30:40;10.30;;;9.37;;
4027;SDS011;2028;51.346;12.396;2023-05-23T02:33:06;10.83;;;9.47;;
4027;SDS011;2028;51.346;12.396;2023-05-23T02:35:33;10.53;;;9.47;;
4027;SDS011;2028;51.346;12.396;2023-05-23T02:37:59;11.13;;;10.13;;
4027;SDS011;2028;51.346;12.396;2023-05-23T02:40:26;11.70;;;9.57;;
4027;SDS011;2028;51.346;12.396;2023-05-23T02:42:52;10.50;;;9.60;;
4027;SDS011;2028;51.346;12.396;2023-05-23T02:45:21;13.60;;;10.33;;
4027;SDS011;2028;51.346;12.396;2023-05-23T02:47:48;11.93;;;10.77;;
4027;SDS011;2028;51.346;12.396;2023-05-23T02:50:14;9.93;;;8.97;;
4027;SDS011;2028;51.346;12.396;2023-05-23T02:52:40;11.97;;;10.70;;
4027;SDS011;2028;51.346;12.396;2023-05-23T02:55:07;12.20;;;11.00;;
4027;SDS011;2028;51.346;12.396;2023-05-23T02:57:34;11.73;;;10.60;;
4027;SDS011;2028;51.346;12.396;2023-05-23T03:00:00;12.30;;;11.07;;
4027;SDS011;2028;51.346;12.396;2023-05-23T03:02:29;14.53;;;10.67;;
4027;SDS011;2028;51.346;12.396;2023-05-23T03:04:56;12.73;;;11.47;;
4027;SDS011;2028;51.346;12.396;2023-05-23T03:07:22;12.83;;;11.63;;
4027;SDS011;2028;51.346;12.396;2023-05-23T03:09:50;12.10;;;11.10;;
4027;SDS011;2028;51.346;12.396;2023-05-23T03:12:16;12.10;;;10.93;;
4027;SDS011;2028;51.346;12.396;2023-05-23T03:14:42;13.97;;;11.73;;
4027;SDS011;2028;51.346;12.396;2023-05-23T03:17:10;13.17;;;11.00;;
4027;SDS011;2028;51.346;12.396;2023-05-23T03:19:37;12.37;;;11.17;;
4027;SDS011;2028;51.346;12.396;2023-05-23T03:22:04;11.20;;;10.00;;
4027;SDS011;2028;51.346;12.396;2023-05-23T03:24:30;12.50;;;10.90;;
4027;SDS011;2028;51.346;12.396;2023-05-23T03:26:57;11.83;;;10.57;;
4027;SDS011;2028;51.346;12.396;2023-05-23T03:29:23;12.27;;;11.17;;
4027;SDS011;2028;51.346;12.396;2023-05-23T03:31:50;12.63;;;11.43;;
4027;SDS011;2028;51.346;12.396;2023-05-23T03:34:16;12.83;;;11.63;;
4027;SDS011;2028;51.346;12.396;2023-05-23T03:36:43;13.33;;;12.07;;
4027;SDS011;2028;51.346;12.396;2023-05-23T03:39:09;16.67;;;12.10;;
4027;SDS011;2028;51.346;12.396;2023-05-23T03:41:35;13.10;;;11.90;;
4027;SDS011;2028;51.346;12.396;2023-05-23T03:44:02;12.53;;;11.33;;
4027;SDS011;2028;51.346;12.396;2023-05-23T03:46:28;13.80;;;12.47;;
4027;SDS011;2028;51.346;12.396;2023-05-23T03:48:55;13.73;;;12.40;;
4027;SDS011;2028;51.346;12.396;2023-05-23T03:51:21;13.10;;;11.73;;
4027;SDS011;2028;51.346;12.396;2023-05-23T03:53:48;13.10;;;11.87;;
4027;SDS011;2028;51.346;12.396;2023-05-23T03:56:15;13.87;;;12.47;;
4027;SDS011;2028;51.346;12.396;2023-05-23T03:58:41;14.33;;;13.07;;
4027;SDS011;2028;51.346;12.396;2023-05-23T04:01:07;13.30;;;12.10;;
4027;SDS011;2028;51.346;12.396;2023-05-23T04:03:34;14.00;;;12.57;;
4027;SDS011;2028;51.346;12.396;2023-05-23T04:06:00;13.10;;;11.97;;
4027;SDS011;2028;51.346;12.396;2023-05-23T04:08:27;13.57;;;12.37;;
4027;SDS011;2028;51.346;12.396;2023-05-23T04:10:54;14.47;;;13.17;;
4027;SDS011;2028;51.346;12.396;2023-05-23T04:13:20;13.90;;;12.53;;
4027;SDS011;2028;51.346;12.396;2023-05-23T04:15:49;13.33;;;12.13;;
4027;SDS011;2028;51.346;12.396;2023-05-23T04:18:16;14.00;;;12.57;;
4027;SDS011;2028;51.346;12.396;2023-05-23T04:20:43;14.20;;;12.90;;
4027;SDS011;2028;51.346;12.396;2023-05-23T04:23:09;13.50;;;12.30;;
4027;SDS011;2028;51.346;12.396;2023-05-23T04:25:36;12.70;;;11.50;;
4027;SDS011;2028;51.346;12.396;2023-05-23T04:28:02;13.30;;;12.00;;
4027;SDS011;2028;51.346;12.396;2023-05-23T04:30:29;17.53;;;15.80;;
4027;SDS011;2028;51.346;12.396;2023-05-23T04:32:56;18.50;;;16.80;;
4027;SDS011;2028;51.346;12.396;2023-05-23T04:35:24;17.37;;;15.67;;
4027;SDS011;2028;51.346;12.396;2023-05-23T04:37:54;14.33;;;12.83;;
4027;SDS011;2028;51.346;12.396;2023-05-23T04:40:22;12.93;;;11.63;;
4027;SDS011;2028;51.346;12.396;2023-05-23T04:42:49;15.27;;;12.13;;
4027;SDS011;2028;51.346;12.396;2023-05-23T04:45:18;13.27;;;11.97;;
4027;SDS011;2028;51.346;12.396;2023-05-23T04:47:45;13.77;;;12.47;;
4027;SDS011;2028;51.346;12.396;2023-05-23T04:50:12;14.80;;;12.07;;
4027;SDS011;2028;51.346;12.396;2023-05-23T04:52:42;16.10;;;12.40;;
4027;SDS011;2028;51.346;12.396;2023-05-23T04:55:08;17.03;;;12.60;;
4027;SDS011;2028;51.346;12.396;2023-05-23T04:57:35;13.73;;;11.90;;
4027;SDS011;2028;51.346;12.396;2023-05-23T05:00:02;12.40;;;11.27;;
4027;SDS011;2028;51.346;12.396;2023-05-23T05:02:35;11.50;;;10.40;;
4027;SDS011;2028;51.346;12.396;2023-05-23T05:05:01;13.73;;;12.43;;
4027;SDS011;2028;51.346;12.396;2023-05-23T05:07:31;12.47;;;10.53;;
4027;SDS011;2028;51.346;12.396;2023-05-23T05:10:00;11.90;;;10.90;;
4027;SDS011;2028;51.346;12.396;2023-05-23T05:12:26;11.90;;;10.83;;
4027;SDS011;2028;51.346;12.396;2023-05-23T05:14:52;11.90;;;10.77;;
4027;SDS011;2028;51.346;12.396;2023-05-23T05:17:19;12.93;;;10.73;;
4027;SDS011;2028;51.346;12.396;2023-05-23T05:19:45;13.67;;;10.83;;
4027;SDS011;2028;51.346;12.396;2023-05-23T05:22:12;11.43;;;10.33;;
4027;SDS011;2028;51.346;12.396;2023-05-23T05:24:39;12.00;;;10.80;;
4027;SDS011;2028;51.346;12.396;2023-05-23T05:27:05;12.50;;;10.77;;
4027;SDS011;2028;51.346;12.396;2023-05-23T05:29:34;12.13;;;10.90;;
4027;SDS011;2028;51.346;12.396;2023-05-23T05:32:00;16.33;;;12.90;;
4027;SDS011;2028;51.346;12.396;2023-05-23T05:34:27;12.87;;;11.37;;
4027;SDS011;2028;51.346;12.396;2023-05-23T05:36:54;12.90;;;11.80;;
4027;SDS011;2028;51.346;12.396;2023-05-23T05:39:22;15.67;;;12.50;;
4027;SDS011;2028;51.346;12.396;2023-05-23T05:41:50;13.87;;;11.60;;
4027;SDS011;2028;51.346;12.396;2023-05-23T05:44:16;13.13;;;11.33;;
4027;SDS011;2028;51.346;12.396;2023-05-23T05:46:43;21.53;;;13.20;;
4027;SDS011;2028;51.346;12.396;2023-05-23T05:49:09;19.97;;;12.77;;
4027;SDS011;2028;51.346;12.396;2023-05-23T05:51:36;24.60;;;13.57;;
4027;SDS011;2028;51.346;12.396;2023-05-23T05:54:02;14.07;;;12.77;;
4027;SDS011;2028;51.346;12.396;2023-05-23T05:56:28;15.70;;;14.00;;
4027;SDS011;2028;51.346;12.396;2023-05-23T05:58:54;26.47;;;23.90;;
4027;SDS011;2028;51.346;12.396;2023-05-23T06:01:21;37.87;;;33.00;;
4027;SDS011;2028;51.346;12.396;2023-05-23T06:03:47;27.13;;;19.20;;
4027;SDS011;2028;51.346;12.396;2023-05-23T06:06:14;22.00;;;19.60;;
4027;SDS011;2028;51.346;12.396;2023-05-23T06:08:40;19.67;;;17.87;;
4027;SDS011;2028;51.346;12.396;2023-05-23T06:11:07;19.97;;;17.37;;
4027;SDS011;2028;51.346;12.396;2023-05-23T06:13:33;18.73;;;16.77;;
4027;SDS011;2028;51.346;12.396;2023-05-23T06:16:00;20.37;;;18.47;;
4027;SDS011;2028;51.346;12.396;2023-05-23T06:18:26;26.83;;;19.47;;
4027;SDS011;2028;51.346;12.396;2023-05-23T06:20:53;19.40;;;17.60;;
4027;SDS011;2028;51.346;12.396;2023-05-23T06:23:20;20.73;;;18.63;;
4027;SDS011;2028;51.346;12.396;2023-05-23T06:25:46;27.43;;;20.37;;
4027;SDS011;2028;51.346;12.396;2023-05-23T06:28:12;19.80;;;17.70;;
4027;SDS011;2028;51.346;12.396;2023-05-23T06:30:39;18.87;;;17.03;;
4027;SDS011;2028;51.346;12.396;2023-05-23T06:33:05;20.97;;;18.03;;
4027;SDS011;2028;51.346;12.396;2023-05-23T06:35:32;21.67;;;19.53;;
4027;SDS011;2028;51.346;12.396;2023-05-23T06:37:58;20.80;;;18.20;;
4027;SDS011;2028;51.346;12.396;2023-05-23T06:40:25;28.33;;;22.50;;
4027;SDS011;2028;51.346;12.396;2023-05-23T06:42:51;25.60;;;22.97;;
4027;SDS011;2028;51.346;12.396;2023-05-23T06:45:17;26.20;;;22.80;;
4027;SDS011;2028;51.346;12.396;2023-05-23T06:47:44;25.57;;;23.07;;
4027;SDS011;2028;51.346;12.396;2023-05-23T06:50:12;39.87;;;22.97;;
4027;SDS011;2028;51.346;12.396;2023-05-23T06:52:38;24.70;;;18.83;;
4027;SDS011;2028;51.346;12.396;2023-05-23T06:55:06;74.23;;;64.17;;
4027;SDS011;2028;51.346;12.396;2023-05-23T06:57:33;56.20;;;50.37;;
4027;SDS011;2028;51.346;12.396;2023-05-23T06:59:59;21.53;;;18.87;;
4027;SDS011;2028;51.346;12.396;2023-05-23T07:02:26;25.50;;;16.47;;
4027;SDS011;2028;51.346;12.396;2023-05-23T07:04:52;24.60;;;21.97;;
4027;SDS011;2028;51.346;12.396;2023-05-23T07:07:18;23.17;;;16.50;;
4027;SDS011;2028;51.346;12.396;2023-05-23T07:09:45;16.27;;;14.53;;
4027;SDS011;2028;51.346;12.396;2023-05-23T07:12:11;18.23;;;13.63;;
4027;SDS011;2028;51.346;12.396;2023-05-23T07:14:38;17.03;;;13.13;;
4027;SDS011;2028;51.346;12.396;2023-05-23T07:17:04;20.77;;;13.63;;
4027;SDS011;2028;51.346;12.396;2023-05-23T07:19:31;15.73;;;11.73;;
4027;SDS011;2028;51.346;12.396;2023-05-23T07:21:57;27.13;;;12.13;;
4027;SDS011;2028;51.346;12.396;2023-05-23T07:24:24;14.37;;;11.93;;
4027;SDS011;2028;51.346;12.396;2023-05-23T07:26:50;17.30;;;11.97;;
4027;SDS011;2028;51.346;12.396;2023-05-23T07:29:16;16.40;;;11.17;;
4027;SDS011;2028;51.346;12.396;2023-05-23T07:31:43;13.67;;;11.07;;
4027;SDS011;2028;51.346;12.396;2023-05-23T07:34:09;11.67;;;10.57;;
4027;SDS011;2028;51.346;12.396;2023-05-23T07:36:35;18.37;;;10.77;;
4027;SDS011;2028;51.346;12.396;2023-05-23T07:39:02;11.63;;;10.53;;
4027;SDS011;2028;51.346;12.396;2023-05-23T07:41:28;15.57;;;10.50;;
4027;SDS011;2028;51.346;12.396;2023-05-23T07:43:54;12.53;;;10.10;;
4027;SDS011;2028;51.346;12.396;2023-05-23T07:46:21;13.13;;;11.47;;
4027;SDS011;2028;51.346;12.396;2023-05-23T07:48:47;21.50;;;19.40;;
4027;SDS011;2028;51.346;12.396;2023-05-23T07:51:14;11.57;;;10.37;;
4027;SDS011;2028;51.346;12.396;2023-05-23T07:53:43;13.97;;;11.70;;
4027;SDS011;2028;51.346;12.396;2023-05-23T07:56:09;14.93;;;10.00;;
4027;SDS011;2028;51.346;12.396;2023-05-23T07:58:35;13.57;;;11.30;;
4027;SDS011;2028;51.346;12.396;2023-05-23T08:01:01;14.73;;;10.33;;
4027;SDS011;2028;51.346;12.396;2023-05-23T08:03:28;15.77;;;10.30;;
4027;SDS011;2028;51.346;12.396;2023-05-23T08:05:57;13.07;;;10.27;;
4027;SDS011;2028;51.346;12.396;2023-05-23T08:08:23;10.23;;;9.13;;
4027;SDS011;2028;51.346;12.396;2023-05-23T08:10:50;30.53;;;25.43;;
4027;SDS011;2028;51.346;12.396;2023-05-23T08:13:19;67.27;;;60.30;;
4027;SDS011;2028;51.346;12.396;2023-05-23T08:15:46;25.80;;;20.97;;
4027;SDS011;2028;51.346;12.396;2023-05-23T08:18:12;12.50;;;10.57;;
4027;SDS011;2028;51.346;12.396;2023-05-23T08:20:38;11.33;;;9.70;;
4027;SDS011;2028;51.346;12.396;2023-05-23T08:23:04;12.33;;;9.43;;
4027;SDS011;2028;51.346;12.396;2023-05-23T08:25:30;18.93;;;10.37;;
4027;SDS011;2028;51.346;12.396;2023-05-23T08:27:57;17.17;;;11.17;;
4027;SDS011;2028;51.346;12.396;2023-05-23T08:30:24;28.20;;;10.70;;
4027;SDS011;2028;51.346;12.396;2023-05-23T08:32:53;10.90;;;9.73;;
4027;SDS011;2028;51.346;12.396;2023-05-23T08:35:20;12.20;;;9.30;;
4027;SDS011;2028;51.346;12.396;2023-05-23T08:37:48;21.87;;;10.40;;
4027;SDS011;2028;51.346;12.396;2023-05-23T08:40:19;15.10;;;9.87;;
4027;SDS011;2028;51.346;12.396;2023-05-23T08:42:49;11.97;;;10.87;;
4027;SDS011;2028;51.346;12.396;2023-05-23T08:45:16;13.07;;;11.67;;
4027;SDS011;2028;51.346;12.396;2023-05-23T08:47:42;20.97;;;15.40;;
4027;SDS011;2028;51.346;12.396;2023-05-23T08:50:10;16.30;;;12.20;;
4027;SDS011;2028;51.346;12.396;2023-05-23T08:52:40;13.73;;;12.03;;
4027;SDS011;2028;51.346;12.396;2023-05-23T08:55:08;13.77;;;10.37;;
4027;SDS011;2028;51.346;12.396;2023-05-23T08:57:34;11.60;;;9.50;;
4027;SDS011;2028;51.346;12.396;2023-05-23T09:00:02;15.13;;;9.97;;
4027;SDS011;2028;51.346;12.396;2023-05-23T09:02:34;12.10;;;10.67;;
4027;SDS011;2028;51.346;12.396;2023-05-23T09:05:02;15.67;;;9.43;;
4027;SDS011;2028;51.346;12.396;2023-05-23T09:07:29;24.07;;;10.50;;
4027;SDS011;2028;51.346;12.396;2023-05-23T09:09:55;13.97;;;10.40;;
4027;SDS011;2028;51.346;12.396;2023-05-23T09:12:22;14.33;;;9.67;;
4027;SDS011;2028;51.346;12.396;2023-05-23T09:14:49;11.70;;;9.87;;
4027;SDS011;2028;51.346;12.396;2023-05-23T09:17:18;13.97;;;11.00;;
4027;SDS011;2028;51.346;12.396;2023-05-23T09:19:44;13.90;;;11.30;;
4027;SDS011;2028;51.346;12.396;2023-05-23T09:22:13;16.17;;;11.27;;
4027;SDS011;2028;51.346;12.396;2023-05-23T09:24:40;15.03;;;11.83;;
4027;SDS011;2028;51.346;12.396;2023-05-23T09:27:06;17.33;;;11.37;;
4027;SDS011;2028;51.346;12.396;2023-05-23T09:29:36;13.63;;;10.53;;
4027;SDS011;2028;51.346;12.396;2023-05-23T09:32:09;104.77;;;82.40;;
4027;SDS011;2028;51.346;12.396;2023-05-23T09:34:39;94.20;;;84.40;;
4027;SDS011;2028;51.346;12.396;2023-05-23T09:37:05;12.00;;;10.53;;
4027;SDS011;2028;51.346;12.396;2023-05-23T09:39:35;12.10;;;10.80;;
4027;SDS011;2028;51.346;12.396;2023-05-23T09:42:02;12.87;;;11.57;;
4027;SDS011;2028;51.346;12.396;2023-05-23T09:44:29;11.40;;;10.00;;
4027;SDS011;2028;51.346;12.396;2023-05-23T09:46:55;13.70;;;11.27;;
4027;SDS011;2028;51.346;12.396;2023-05-23T09:49:21;11.83;;;10.70;;
4027;SDS011;2028;51.346;12.396;2023-05-23T09:51:58;16.30;;;11.37;;
4027;SDS011;2028;51.346;12.396;2023-05-23T09:54:25;12.37;;;10.70;;
4027;SDS011;2028;51.346;12.396;2023-05-23T09:56:54;14.30;;;11.77;;
4027;SDS011;2028;51.346;12.396;2023-05-23T09:59:27;13.17;;;11.77;;
4027;SDS011;2028;51.346;12.396;2023-05-23T10:01:56;13.17;;;11.37;;
4027;SDS011;2028;51.346;12.396;2023-05-23T10:04:46;13.23;;;10.97;;
4027;SDS011;2028;51.346;12.396;2023-05-23T10:07:13;16.77;;;10.83;;
4027;SDS011;2028;51.346;12.396;2023-05-23T10:09:44;10.77;;;9.40;;
4027;SDS011;2028;51.346;12.396;2023-05-23T10:12:35;12.57;;;10.67;;
4027;SDS011;2028;51.346;12.396;2023-05-23T10:15:03;17.57;;;12.53;;
4027;SDS011;2028;51.346;12.396;2023-05-23T10:20:07;14.10;;;11.67;;
4027;SDS011;2028;51.346;12.396;2023-05-23T10:22:36;12.63;;;11.33;;
4027;SDS011;2028;51.346;12.396;2023-05-23T10:25:03;24.13;;;21.57;;
4027;SDS011;2028;51.346;12.396;2023-05-23T10:27:31;31.03;;;18.23;;
4027;SDS011;2028;51.346;12.396;2023-05-23T10:30:00;87.30;;;45.43;;
4027;SDS011;2028;51.346;12.396;2023-05-23T10:32:27;75.53;;;47.87;;
4027;SDS011;2028;51.346;12.396;2023-05-23T10:35:09;26.43;;;19.73;;
4027;SDS011;2028;51.346;12.396;2023-05-23T10:40:15;15.77;;;13.50;;
4027;SDS011;2028;51.346;12.396;2023-05-23T10:42:46;13.83;;;12.50;;
4027;SDS011;2028;51.346;12.396;2023-05-23T10:47:40;11.13;;;9.97;;
4027;SDS011;2028;51.346;12.396;2023-05-23T10:50:10;11.70;;;10.70;;
4027;SDS011;2028;51.346;12.396;2023-05-23T10:52:38;32.47;;;29.07;;
4027;SDS011;2028;51.346;12.396;2023-05-23T10:55:12;32.60;;;27.67;;
4027;SDS011;2028;51.346;12.396;2023-05-23T10:57:39;12.73;;;11.43;;
4027;SDS011;2028;51.346;12.396;2023-05-23T11:00:14;11.40;;;9.33;;
4027;SDS011;2028;51.346;12.396;2023-05-23T11:02:53;8.63;;;7.53;;
4027;SDS011;2028;51.346;12.396;2023-05-23T11:05:21;7.67;;;6.23;;
4027;SDS011;2028;51.346;12.396;2023-05-23T11:13:18;5.73;;;5.10;;
4027;SDS011;2028;51.346;12.396;2023-05-23T11:15:46;5.60;;;5.10;;
4027;SDS011;2028;51.346;12.396;2023-05-23T11:18:46;4.87;;;4.47;;
4027;SDS011;2028;51.346;12.396;2023-05-23T11:21:05;8.73;;;4.87;;
4027;SDS011;2028;51.346;12.396;2023-05-23T11:23:38;8.10;;;3.30;;
4027;SDS011;2028;51.346;12.396;2023-05-23T11:26:24;8.53;;;4.30;;
4027;SDS011;2028;51.346;12.396;2023-05-23T11:28:56;5.20;;;3.50;;
4027;SDS011;2028;51.346;12.396;2023-05-23T11:31:23;26.13;;;22.27;;
4027;SDS011;2028;51.346;12.396;2023-05-23T11:33:50;15.57;;;10.60;;
4027;SDS011;2028;51.346;12.396;2023-05-23T11:36:16;4.73;;;3.27;;
4027;SDS011;2028;51.346;12.396;2023-05-23T11:38:42;5.63;;;3.57;;
4027;SDS011;2028;51.346;12.396;2023-05-23T11:41:09;8.03;;;4.37;;
4027;SDS011;2028;51.346;12.396;2023-05-23T11:43:35;4.63;;;3.90;;
4027;SDS011;2028;51.346;12.396;2023-05-23T11:46:08;8.00;;;3.20;;
4027;SDS011;2028;51.346;12.396;2023-05-23T11:48:34;15.00;;;5.47;;
4027;SDS011;2028;51.346;12.396;2023-05-23T11:51:00;10.97;;;3.40;;
4027;SDS011;2028;51.346;12.396;2023-05-23T11:53:27;7.10;;;3.20;;
4027;SDS011;2028;51.346;12.396;2023-05-23T11:55:54;4.50;;;2.97;;
4027;SDS011;2028;51.346;12.396;2023-05-23T11:58:24;9.50;;;3.43;;
4027;SDS011;2028;51.346;12.396;2023-05-23T12:00:50;8.77;;;6.33;;
4027;SDS011;2028;51.346;12.396;2023-05-23T12:03:17;7.63;;;5.60;;
4027;SDS011;2028;51.346;12.396;2023-05-23T12:05:43;7.67;;;6.87;;
4027;SDS011;2028;51.346;12.396;2023-05-23T12:08:11;8.23;;;5.80;;
4027;SDS011;2028;51.346;12.396;2023-05-23T12:10:55;6.10;;;4.60;;
4027;SDS011;2028;51.346;12.396;2023-05-23T12:13:25;8.20;;;7.33;;
4027;SDS011;2028;51.346;12.396;2023-05-23T12:15:55;11.63;;;9.03;;
4027;SDS011;2028;51.346;12.396;2023-05-23T12:18:22;7.70;;;5.27;;
4027;SDS011;2028;51.346;12.396;2023-05-23T12:20:50;7.90;;;7.10;;
4027;SDS011;2028;51.346;12.396;2023-05-23T12:23:18;22.03;;;19.63;;
4027;SDS011;2028;51.346;12.396;2023-05-23T12:25:44;5.77;;;5.17;;
4027;SDS011;2028;51.346;12.396;2023-05-23T12:28:14;4.83;;;4.40;;
4027;SDS011;2028;51.346;12.396;2023-05-23T12:30:41;9.77;;;7.90;;
4027;SDS011;2028;51.346;12.396;2023-05-23T12:33:08;14.30;;;7.30;;
4027;SDS011;2028;51.346;12.396;2023-05-23T12:35:34;10.27;;;8.00;;
4027;SDS011;2028;51.346;12.396;2023-05-23T12:38:01;8.40;;;6.33;;
4027;SDS011;2028;51.346;12.396;2023-05-23T12:40:27;6.70;;;4.70;;
4027;SDS011;2028;51.346;12.396;2023-05-23T12:42:54;5.73;;;4.23;;
4027;SDS011;2028;51.346;12.396;2023-05-23T12:45:21;6.20;;;4.00;;
4027;SDS011;2028;51.346;12.396;2023-05-23T12:47:47;5.13;;;3.20;;
4027;SDS011;2028;51.346;12.396;2023-05-23T12:50:14;9.70;;;3.70;;
4027;SDS011;2028;51.346;12.396;2023-05-23T12:52:40;11.57;;;3.67;;
4027;SDS011;2028;51.346;12.396;2023-05-23T12:55:06;5.17;;;3.70;;
4027;SDS011;2028;51.346;12.396;2023-05-23T12:57:33;8.87;;;3.97;;
4027;SDS011;2028;51.346;12.396;2023-05-23T13:00:00;5.00;;;3.97;;
4027;SDS011;2028;51.346;12.396;2023-05-23T13:02:26;8.90;;;4.03;;
4027;SDS011;2028;51.346;12.396;2023-05-23T13:04:53;7.33;;;3.67;;
4027;SDS011;2028;51.346;12.396;2023-05-23T13:07:19;4.53;;;3.60;;
4027;SDS011;2028;51.346;12.396;2023-05-23T13:09:46;7.30;;;4.30;;
4027;SDS011;2028;51.346;12.396;2023-05-23T13:12:12;8.00;;;4.00;;
4027;SDS011;2028;51.346;12.396;2023-05-23T13:14:40;7.83;;;4.57;;
4027;SDS011;2028;51.346;12.396;2023-05-23T13:17:06;7.60;;;5.10;;
4027;SDS011;2028;51.346;12.396;2023-05-23T13:19:33;5.77;;;4.80;;
4027;SDS011;2028;51.346;12.396;2023-05-23T13:22:00;6.93;;;5.23;;
4027;SDS011;2028;51.346;12.396;2023-05-23T13:24:28;13.90;;;6.70;;
4027;SDS011;2028;51.346;12.396;2023-05-23T13:26:55;11.93;;;6.67;;
4027;SDS011;2028;51.346;12.396;2023-05-23T13:29:21;30.93;;;27.00;;
4027;SDS011;2028;51.346;12.396;2023-05-23T13:31:47;7.70;;;7.00;;
4027;SDS011;2028;51.346;12.396;2023-05-23T13:34:14;6.97;;;4.93;;
4027;SDS011;2028;51.346;12.396;2023-05-23T13:36:40;10.87;;;5.23;;
4027;SDS011;2028;51.346;12.396;2023-05-23T13:39:07;5.17;;;4.50;;
4027;SDS011;2028;51.346;12.396;2023-05-23T13:41:33;9.67;;;5.80;;
4027;SDS011;2028;51.346;12.396;2023-05-23T13:43:59;8.77;;;7.87;;
4027;SDS011;2028;51.346;12.396;2023-05-23T13:46:26;10.20;;;7.10;;
4027;SDS011;2028;51.346;12.396;2023-05-23T13:48:52;10.97;;;7.33;;
4027;SDS011;2028;51.346;12.396;2023-05-23T13:51:18;21.27;;;19.00;;
4027;SDS011;2028;51.346;12.396;2023-05-23T13:53:45;5.10;;;4.60;;
4027;SDS011;2028;51.346;12.396;2023-05-23T13:56:11;9.63;;;6.47;;
4027;SDS011;2028;51.346;12.396;2023-05-23T13:58:37;8.07;;;5.20;;
4027;SDS011;2028;51.346;12.396;2023-05-23T14:01:04;6.03;;;5.47;;
4027;SDS011;2028;51.346;12.396;2023-05-23T14:03:30;6.00;;;5.40;;
4027;SDS011;2028;51.346;12.396;2023-05-23T14:05:57;6.30;;;5.53;;
4027;SDS011;2028;51.346;12.396;2023-05-23T14:08:23;6.97;;;5.70;;
4027;SDS011;2028;51.346;12.396;2023-05-23T14:10:50;11.37;;;5.33;;
4027;SDS011;2028;51.346;12.396;2023-05-23T14:13:16;5.27;;;4.77;;
4027;SDS011;2028;51.346;12.396;2023-05-23T14:15:43;5.33;;;4.83;;
4027;SDS011;2028;51.346;12.396;2023-05-23T14:18:10;11.40;;;5.63;;
4027;SDS011;2028;51.346;12.396;2023-05-23T14:20:37;6.13;;;5.53;;
4027;SDS011;2028;51.346;12.396;2023-05-23T14:23:03;6.10;;;5.50;;
4027;SDS011;2028;51.346;12.396;2023-05-23T14:25:29;23.73;;;6.33;;
4027;SDS011;2028;51.346;12.396;2023-05-23T14:27:56;10.70;;;5.10;;
4027;SDS011;2028;51.346;12.396;2023-05-23T14:30:22;8.83;;;5.10;;
4027;SDS011;2028;51.346;12.396;2023-05-23T14:32:49;12.10;;;5.83;;
4027;SDS011;2028;51.346;12.396;2023-05-23T14:35:15;5.73;;;5.20;;
4027;SDS011;2028;51.346;12.396;2023-05-23T14:37:41;5.70;;;5.10;;
4027;SDS011;2028;51.346;12.396;2023-05-23T14:40:07;7.37;;;5.23;;
4027;SDS011;2028;51.346;12.396;2023-05-23T14:42:34;42.53;;;6.77;;
4027;SDS011;2028;51.346;12.396;2023-05-23T14:45:01;6.93;;;4.80;;
4027;SDS011;2028;51.346;12.396;2023-05-23T14:47:27;12.27;;;5.70;;
4027;SDS011;2028;51.346;12.396;2023-05-23T14:49:55;16.73;;;5.70;;
4027;SDS011;2028;51.346;12.396;2023-05-23T14:52:21;21.60;;;5.93;;
4027;SDS011;2028;51.346;12.396;2023-05-23T14:54:47;18.43;;;16.40;;
4027;SDS011;2028;51.346;12.396;2023-05-23T14:57:14;6.67;;;6.07;;
4027;SDS011;2028;51.346;12.396;2023-05-23T14:59:40;7.93;;;5.03;;
4027;SDS011;2028;51.346;12.396;2023-05-23T15:02:07;5.33;;;4.00;;
4027;SDS011;2028;51.346;12.396;2023-05-23T15:04:33;5.00;;;4.50;;
4027;SDS011;2028;51.346;12.396;2023-05-23T15:07:00;3.93;;;3.57;;